Time;durP1;ratioP1;P1;durP2;ratioP2;P2;SDS_P1;SDS_P2;PMS_P1;PMS_P2;Temp;Humidity;BMP_temperature;BMP_pressure;BME280_temperature;BME280_humidity;BME280_pressure;Samples;Min_cycle;Max_cycle;Signal;HPM_P1;HPM_P2
2021/12/04 00:00:24;;;;;;;71.15;33.72;;;1.50;99.90;;;;;;5052179;28;20406;-72
2021/12/04 00:02:51;;;;;;;64.97;33.72;;;1.50;99.90;;;;;;5052084;28;20436;-73
2021/12/04 00:05:18;;;;;;;75.47;34.10;;;1.50;99.90;;;;;;5052341;28;20087;-72
2021/12/04 00:07:44;;;;;;;82.55;37.78;;;1.50;99.90;;;;;;5052402;28;20033;-72
2021/12/04 00:10:17;;;;;;;82.65;40.00;;;1.40;99.90;;;;;;5052602;28;20021;-72
2021/12/04 00:12:43;;;;;;;91.03;41.35;;;1.40;99.90;;;;;;5049960;28;20013;-72
2021/12/04 00:15:10;;;;;;;106.30;46.10;;;1.40;99.90;;;;;;5052148;28;20029;-72
2021/12/04 00:17:36;;;;;;;94.47;43.95;;;1.40;99.90;;;;;;5052139;28;21287;-72
2021/12/04 00:20:07;;;;;;;151.40;69.72;;;1.30;99.90;;;;;;5048873;28;20425;-72
2021/12/04 00:22:33;;;;;;;169.73;80.25;;;1.30;99.90;;;;;;5052242;28;20021;-71
2021/12/04 00:24:59;;;;;;;186.77;83.10;;;1.30;99.90;;;;;;5052019;28;20025;-72
2021/12/04 00:27:25;;;;;;;194.90;80.93;;;1.40;99.90;;;;;;5052162;28;20458;-72
2021/12/04 00:29:51;;;;;;;204.98;84.68;;;1.40;99.90;;;;;;5052041;28;20024;-72
2021/12/04 00:32:27;;;;;;;192.40;81.00;;;1.30;99.90;;;;;;5051682;28;20013;-72
2021/12/04 00:35:20;;;;;;;177.35;76.78;;;1.40;99.90;;;;;;5051885;28;20341;-71
2021/12/04 00:49:07;;;;;;;138.98;58.58;;;1.30;99.90;;;;;;5052277;28;20483;-71
2021/12/04 00:51:11;;;;;;;121.88;55.50;;;1.30;99.90;;;;;;5052303;28;20021;-71
2021/12/04 00:53:37;;;;;;;150.27;65.47;;;1.30;99.90;;;;;;5052770;28;20079;-72
2021/12/04 00:56:03;;;;;;;189.25;82.05;;;1.40;99.90;;;;;;5053456;28;20025;-71
2021/12/04 00:58:29;;;;;;;129.07;59.45;;;1.30;99.90;;;;;;5052675;28;20021;-72
2021/12/04 01:00:54;;;;;;;179.18;78.15;;;1.40;99.90;;;;;;5052204;28;20032;-71
2021/12/04 01:03:20;;;;;;;191.73;78.80;;;1.40;99.90;;;;;;5052277;28;20100;-72
2021/12/04 01:05:46;;;;;;;156.02;66.20;;;1.30;99.90;;;;;;5051868;28;20407;-72
2021/12/04 01:08:12;;;;;;;173.23;73.80;;;1.30;99.90;;;;;;5052369;28;20463;-71
2021/12/04 01:10:38;;;;;;;167.85;76.05;;;1.30;99.90;;;;;;5051970;28;20053;-72
2021/12/04 01:13:10;;;;;;;160.70;76.05;;;1.30;99.90;;;;;;5051966;28;20017;-71
2021/12/04 01:15:37;;;;;;;149.88;68.38;;;1.30;99.90;;;;;;5052216;28;20052;-71
2021/12/04 01:18:03;;;;;;;149.85;66.85;;;1.30;99.90;;;;;;5052450;28;20024;-71
2021/12/04 01:20:29;;;;;;;180.15;84.72;;;1.20;99.90;;;;;;5052934;28;20025;-72
2021/12/04 01:22:55;;;;;;;138.15;64.85;;;1.20;99.90;;;;;;5052857;28;20028;-71
2021/12/04 01:25:20;;;;;;;118.07;53.10;;;1.20;99.90;;;;;;5052133;28;20060;-72
2021/12/04 01:27:46;;;;;;;100.55;46.72;;;1.20;99.90;;;;;;5052221;28;20074;-71
2021/12/04 01:30:13;;;;;;;122.85;56.22;;;1.20;99.90;;;;;;5053916;28;20124;-71
2021/12/04 01:32:39;;;;;;;119.22;51.63;;;1.10;99.90;;;;;;5056755;28;20024;-72
2021/12/04 01:35:06;;;;;;;99.93;44.17;;;1.10;99.90;;;;;;5056465;28;20513;-72
2021/12/04 01:37:31;;;;;;;89.82;45.03;;;1.10;99.90;;;;;;5056437;28;20025;-71
2021/12/04 01:39:57;;;;;;;83.70;40.92;;;1.10;99.90;;;;;;5056312;28;20036;-71
2021/12/04 01:42:23;;;;;;;71.10;33.53;;;1.10;99.90;;;;;;5056319;28;20021;-71
2021/12/04 01:44:49;;;;;;;58.63;29.20;;;1.10;99.90;;;;;;5056078;28;20021;-71
2021/12/04 01:47:20;;;;;;;57.83;27.33;;;1.10;99.90;;;;;;5055828;28;20155;-71
2021/12/04 01:49:48;;;;;;;65.40;30.10;;;1.00;99.90;;;;;;5055479;28;20477;-71
2021/12/04 01:52:17;;;;;;;71.75;33.92;;;1.00;99.90;;;;;;5055046;28;20398;-71
2021/12/04 01:54:43;;;;;;;101.43;43.72;;;1.00;99.90;;;;;;5055158;28;20033;-71
2021/12/04 01:57:09;;;;;;;63.00;30.48;;;1.00;99.90;;;;;;5055352;28;20024;-71
2021/12/04 01:59:34;;;;;;;73.90;32.72;;;1.00;99.90;;;;;;5055001;28;20025;-71
2021/12/04 02:02:03;;;;;;;58.13;27.85;;;1.00;99.90;;;;;;5055340;28;20025;-71
2021/12/04 02:04:28;;;;;;;61.33;27.83;;;1.00;99.90;;;;;;5055025;28;20032;-71
2021/12/04 02:06:54;;;;;;;82.60;40.45;;;1.00;99.90;;;;;;5055106;28;20032;-72
2021/12/04 02:09:20;;;;;;;83.85;43.58;;;0.90;99.90;;;;;;5054856;28;20025;-72
2021/12/04 02:11:46;;;;;;;86.88;41.10;;;1.00;99.90;;;;;;5054637;28;20025;-72
2021/12/04 02:14:13;;;;;;;78.82;36.38;;;1.00;99.90;;;;;;5054908;28;20091;-71
2021/12/04 02:16:38;;;;;;;94.38;45.20;;;1.00;99.90;;;;;;5054701;28;20032;-72
2021/12/04 02:19:05;;;;;;;111.22;51.58;;;1.10;99.90;;;;;;5054587;28;20032;-72
2021/12/04 02:21:31;;;;;;;106.57;51.33;;;1.10;99.90;;;;;;5054855;28;20029;-71
2021/12/04 02:23:57;;;;;;;109.32;51.90;;;1.20;99.90;;;;;;5054313;28;20031;-72
2021/12/04 02:26:24;;;;;;;104.63;46.88;;;1.20;99.90;;;;;;5054709;28;20029;-72
2021/12/04 02:28:50;;;;;;;80.47;39.25;;;1.30;99.90;;;;;;5054735;28;20399;-72
2021/12/04 02:31:16;;;;;;;88.18;41.78;;;1.20;99.90;;;;;;5054509;28;20468;-72
2021/12/04 02:33:42;;;;;;;107.78;44.40;;;1.30;99.90;;;;;;5054461;28;20103;-72
2021/12/04 02:36:08;;;;;;;107.43;44.50;;;1.30;99.90;;;;;;5054058;28;20439;-71
2021/12/04 02:38:34;;;;;;;101.07;41.85;;;1.30;99.90;;;;;;5054555;28;20017;-71
2021/12/04 02:41:02;;;;;;;95.10;38.05;;;1.30;99.90;;;;;;5054095;28;20055;-72
2021/12/04 02:43:32;;;;;;;71.07;30.58;;;1.30;99.90;;;;;;5053849;28;20142;-72
2021/12/04 02:45:58;;;;;;;76.95;30.45;;;1.30;99.90;;;;;;5054202;28;20422;-71
2021/12/04 02:48:24;;;;;;;69.90;28.83;;;1.30;99.90;;;;;;5054237;28;20025;-71
2021/12/04 02:50:50;;;;;;;44.72;21.48;;;1.30;99.90;;;;;;5053915;28;20341;-72
2021/12/04 02:53:17;;;;;;;43.47;21.23;;;1.30;99.90;;;;;;5054247;28;20384;-72
2021/12/04 02:55:43;;;;;;;45.13;20.80;;;1.40;99.90;;;;;;5054070;28;20033;-71
2021/12/04 02:58:10;;;;;;;51.72;25.02;;;1.30;99.90;;;;;;5053980;28;20029;-72
2021/12/04 03:00:41;;;;;;;53.22;24.88;;;1.30;99.90;;;;;;5054008;28;20029;-71
2021/12/04 03:03:07;;;;;;;47.60;22.60;;;1.30;99.90;;;;;;5053813;28;20074;-72
2021/12/04 03:05:33;;;;;;;48.78;20.90;;;1.30;99.90;;;;;;5053497;28;20033;-72
2021/12/04 03:07:59;;;;;;;52.38;23.60;;;1.30;99.90;;;;;;5053873;28;20033;-72
2021/12/04 03:10:26;;;;;;;60.17;26.98;;;1.30;99.90;;;;;;5053885;28;20428;-72
2021/12/04 03:12:53;;;;;;;63.20;28.23;;;1.30;99.90;;;;;;5054354;28;20075;-71
2021/12/04 03:15:21;;;;;;;38.80;19.42;;;1.30;99.90;;;;;;5054482;28;20025;-72
2021/12/04 03:17:47;;;;;;;39.13;19.15;;;1.40;99.90;;;;;;5054326;28;20047;-72
2021/12/04 03:20:13;;;;;;;34.25;16.80;;;1.40;99.90;;;;;;5054313;28;20033;-71
2021/12/04 03:22:43;;;;;;;32.05;16.75;;;1.40;99.90;;;;;;5054002;28;20027;-73
2021/12/04 03:25:09;;;;;;;33.90;18.35;;;1.50;99.90;;;;;;5053631;28;20029;-72
2021/12/04 03:27:35;;;;;;;37.75;16.88;;;1.50;99.90;;;;;;5054399;28;20025;-72
2021/12/04 03:30:06;;;;;;;45.05;18.00;;;1.50;99.90;;;;;;5053995;28;20412;-72
2021/12/04 03:32:54;;;;;;;36.83;17.00;;;1.50;99.90;;;;;;5054085;28;20056;-72
2021/12/04 03:40:54;;;;;;;41.38;22.27;;;1.50;99.90;;;;;;5053914;28;20052;-72
2021/12/04 03:43:21;;;;;;;41.58;20.02;;;1.60;99.90;;;;;;5053762;28;20025;-73
2021/12/04 03:45:52;;;;;;;38.30;17.75;;;1.60;99.90;;;;;;5053656;28;20032;-71
2021/12/04 03:51:04;;;;;;;46.45;18.67;;;1.70;99.90;;;;;;5053953;28;19900;-72
2021/12/04 03:53:30;;;;;;;46.78;21.50;;;1.70;99.90;;;;;;5053759;28;20024;-72
2021/12/04 03:55:56;;;;;;;44.72;21.52;;;1.70;99.90;;;;;;5053861;28;20040;-72
2021/12/04 03:58:23;;;;;;;43.83;23.08;;;1.70;99.90;;;;;;5054102;28;20075;-73
2021/12/04 04:00:50;;;;;;;70.40;31.48;;;1.70;99.90;;;;;;5053231;28;20032;-72
2021/12/04 04:03:15;;;;;;;63.65;28.30;;;1.70;99.90;;;;;;5053590;28;20028;-72
2021/12/04 04:05:41;;;;;;;47.08;20.95;;;1.70;99.90;;;;;;5053554;28;20028;-72
2021/12/04 04:08:08;;;;;;;40.63;20.40;;;1.70;99.90;;;;;;5053363;28;20029;-72
2021/12/04 04:10:34;;;;;;;40.70;20.05;;;1.70;99.90;;;;;;5053968;28;20078;-71
2021/12/04 04:13:00;;;;;;;47.92;22.30;;;1.70;99.90;;;;;;5053719;28;20029;-72
2021/12/04 04:15:25;;;;;;;46.20;20.48;;;1.70;99.90;;;;;;5053282;28;20047;-72
2021/12/04 04:17:52;;;;;;;47.08;20.70;;;1.70;99.90;;;;;;5053597;28;20017;-72
2021/12/04 04:20:20;;;;;;;41.72;21.25;;;1.70;99.90;;;;;;5053596;28;20024;-71
2021/12/04 04:22:47;;;;;;;51.22;23.35;;;1.70;99.90;;;;;;5053084;28;20017;-73
2021/12/04 04:25:14;;;;;;;52.70;24.77;;;1.70;99.90;;;;;;5053397;28;20443;-72
2021/12/04 04:27:41;;;;;;;52.53;22.20;;;1.70;99.90;;;;;;5053512;28;20040;-72
2021/12/04 04:30:12;;;;;;;52.95;25.70;;;1.70;99.90;;;;;;5053644;28;20028;-72
2021/12/04 04:32:38;;;;;;;57.65;27.08;;;1.70;99.90;;;;;;5053412;28;20029;-72
2021/12/04 04:35:13;;;;;;;69.55;31.52;;;1.60;99.90;;;;;;5053119;28;20484;-72
2021/12/04 04:40:28;;;;;;;41.20;19.15;;;1.60;99.90;;;;;;5052786;28;20103;-72
2021/12/04 04:59:34;;;;;;;44.97;20.25;;;1.50;99.90;;;;;;5053269;28;20090;-72
2021/12/04 05:02:23;;;;;;;44.28;20.30;;;1.60;99.90;;;;;;5053504;28;20017;-73
2021/12/04 05:12:52;;;;;;;88.80;35.60;;;1.70;99.90;;;;;;5057150;28;20029;-73
2021/12/04 05:15:35;;;;;;;88.18;36.90;;;1.80;99.90;;;;;;5056456;28;20385;-72
2021/12/04 05:20:35;;;;;;;68.20;31.20;;;1.80;99.90;;;;;;5056766;28;20332;-71
2021/12/04 05:23:01;;;;;;;72.13;29.30;;;1.80;99.90;;;;;;5057162;28;20017;-71
2021/12/04 05:25:29;;;;;;;60.40;27.25;;;1.80;99.90;;;;;;5056590;28;20112;-71
2021/12/04 05:27:55;;;;;;;64.90;27.98;;;1.90;99.90;;;;;;5056334;28;20029;-72
2021/12/04 05:30:21;;;;;;;50.65;23.30;;;1.90;99.90;;;;;;5056315;28;20104;-72
2021/12/04 05:32:47;;;;;;;44.35;20.25;;;1.80;99.90;;;;;;5056624;28;20029;-72
2021/12/04 05:35:12;;;;;;;40.28;20.75;;;1.90;99.90;;;;;;5056191;28;20355;-72
2021/12/04 05:37:38;;;;;;;37.70;17.58;;;1.80;99.90;;;;;;5056477;28;20025;-72
2021/12/04 05:40:10;;;;;;;42.42;19.55;;;1.80;99.90;;;;;;5055271;28;20363;-72
2021/12/04 05:42:36;;;;;;;49.70;22.35;;;1.80;99.90;;;;;;5056463;28;20108;-72
2021/12/04 05:45:03;;;;;;;44.38;20.17;;;1.80;99.90;;;;;;5055931;28;20115;-72
2021/12/04 05:47:38;;;;;;;59.60;26.42;;;1.90;99.90;;;;;;5056334;28;20070;-72
2021/12/04 05:55:22;;;;;;;453.80;152.35;;;1.90;99.90;;;;;;5056170;28;20021;-72
2021/12/04 05:57:48;;;;;;;180.32;67.80;;;1.90;99.90;;;;;;5055831;28;20024;-71
2021/12/04 06:00:19;;;;;;;132.15;56.17;;;1.80;99.90;;;;;;5055890;28;20021;-72
2021/12/04 06:02:46;;;;;;;133.95;58.30;;;1.70;99.90;;;;;;5055727;28;20036;-71
2021/12/04 06:05:12;;;;;;;136.63;58.22;;;1.70;99.90;;;;;;5056091;28;20033;-73
2021/12/04 06:07:38;;;;;;;132.13;58.38;;;1.60;99.90;;;;;;5056000;28;20112;-72
2021/12/04 06:10:05;;;;;;;161.68;73.57;;;1.60;99.90;;;;;;5055522;28;20017;-71
2021/12/04 06:12:32;;;;;;;190.23;82.00;;;1.60;99.90;;;;;;5055971;28;20020;-72
2021/12/04 06:14:59;;;;;;;146.77;63.65;;;1.60;99.90;;;;;;5055520;28;20024;-71
2021/12/04 06:17:25;;;;;;;132.38;60.58;;;1.60;99.90;;;;;;5054534;28;20049;-71
2021/12/04 06:22:41;;;;;;;180.05;77.60;;;1.60;99.90;;;;;;5055637;28;20032;-72
2021/12/04 06:25:12;;;;;;;178.00;76.90;;;1.70;99.90;;;;;;5055435;28;20170;-71
2021/12/04 06:27:39;;;;;;;231.23;110.53;;;1.70;99.90;;;;;;5055387;28;20110;-72
2021/12/04 06:30:07;;;;;;;218.95;100.90;;;1.70;99.90;;;;;;5055533;28;20036;-72
2021/12/04 06:32:35;;;;;;;196.05;91.72;;;1.70;99.90;;;;;;5055169;28;20024;-72
2021/12/04 06:35:02;;;;;;;196.52;86.28;;;1.70;99.90;;;;;;5054843;28;20492;-72
2021/12/04 06:37:27;;;;;;;204.68;89.15;;;1.70;99.90;;;;;;5055425;28;20021;-72
2021/12/04 06:39:53;;;;;;;184.65;85.57;;;1.80;99.90;;;;;;5054731;28;20112;-72
2021/12/04 06:42:19;;;;;;;183.32;81.18;;;1.80;99.90;;;;;;5054621;28;20021;-72
2021/12/04 06:44:45;;;;;;;173.90;76.03;;;1.80;99.90;;;;;;5054187;28;20025;-72
2021/12/04 06:47:10;;;;;;;147.88;67.15;;;1.90;99.90;;;;;;5055284;28;20349;-72
2021/12/04 06:49:40;;;;;;;144.35;64.88;;;1.90;99.90;;;;;;5055004;28;20091;-71
2021/12/04 06:52:10;;;;;;;129.23;53.80;;;1.90;99.90;;;;;;5054708;28;20464;-72
2021/12/04 06:54:39;;;;;;;624.70;263.58;;;2.00;99.90;;;;;;5055103;28;20060;-72
2021/12/04 06:57:09;;;;;;;559.22;238.82;;;2.00;99.90;;;;;;5054793;28;20050;-72
2021/12/04 06:59:38;;;;;;;456.73;190.27;;;2.10;99.90;;;;;;5054799;28;20490;-72
2021/12/04 07:02:04;;;;;;;338.52;144.40;;;2.10;99.90;;;;;;5054580;28;20060;-71
2021/12/04 07:04:34;;;;;;;293.60;123.38;;;2.20;99.90;;;;;;5054868;28;20056;-71
2021/12/04 07:07:11;;;;;;;287.20;128.00;;;2.30;99.90;;;;;;5054826;28;20364;-71
2021/12/04 07:09:38;;;;;;;217.55;90.70;;;2.40;99.90;;;;;;5054333;28;20371;-72
2021/12/04 07:12:04;;;;;;;241.25;102.20;;;2.40;99.90;;;;;;5054465;28;20028;-72
2021/12/04 07:14:31;;;;;;;187.57;79.85;;;2.50;99.90;;;;;;5054578;28;20037;-73
2021/12/04 07:16:59;;;;;;;202.10;90.80;;;2.60;99.90;;;;;;5054242;28;20017;-72
2021/12/04 07:19:25;;;;;;;192.80;86.30;;;2.60;99.90;;;;;;5054787;28;20033;-73
2021/12/04 07:21:51;;;;;;;195.90;85.05;;;2.60;99.90;;;;;;5054418;28;20448;-73
2021/12/04 07:24:17;;;;;;;123.60;56.08;;;2.70;99.90;;;;;;5053979;28;20028;-72
2021/12/04 07:26:43;;;;;;;110.93;47.30;;;2.80;99.90;;;;;;5054000;28;20437;-73
2021/12/04 07:29:09;;;;;;;122.25;52.88;;;2.80;99.90;;;;;;5053888;28;20021;-72
2021/12/04 07:31:37;;;;;;;135.15;57.72;;;3.00;99.90;;;;;;5054060;28;20443;-72
2021/12/04 07:34:04;;;;;;;134.02;62.75;;;3.30;99.90;;;;;;5054124;28;20435;-73
2021/12/04 07:36:30;;;;;;;152.88;71.43;;;3.50;99.90;;;;;;5054379;28;20048;-72
2021/12/04 07:38:56;;;;;;;169.55;73.80;;;3.70;99.90;;;;;;5053005;28;20025;-73
2021/12/04 07:41:21;;;;;;;177.15;80.03;;;3.80;99.90;;;;;;5053193;28;20368;-72
2021/12/04 07:43:48;;;;;;;131.25;58.88;;;3.90;99.90;;;;;;5053215;28;20414;-73
2021/12/04 07:46:14;;;;;;;143.48;63.85;;;4.00;99.90;;;;;;5051358;28;20414;-74
2021/12/04 07:48:40;;;;;;;149.30;63.90;;;4.00;99.90;;;;;;5053052;28;20466;-73
2021/12/04 07:51:06;;;;;;;372.90;152.13;;;4.10;99.90;;;;;;5052955;28;20040;-73
2021/12/04 07:53:33;;;;;;;105.63;51.35;;;4.10;99.90;;;;;;5053693;28;20032;-73
2021/12/04 07:55:59;;;;;;;104.57;49.60;;;4.30;99.90;;;;;;5053139;28;20036;-73
2021/12/04 07:58:25;;;;;;;152.23;70.97;;;4.40;99.90;;;;;;5053013;28;20020;-72
2021/12/04 08:00:51;;;;;;;114.72;54.97;;;4.40;99.90;;;;;;5052561;28;20066;-73
2021/12/04 08:03:17;;;;;;;152.43;70.72;;;4.50;99.90;;;;;;5052402;28;20021;-73
2021/12/04 08:05:44;;;;;;;348.92;174.68;;;4.30;99.90;;;;;;5053029;28;20025;-73
2021/12/04 08:08:10;;;;;;;143.77;83.88;;;4.30;99.90;;;;;;5052662;28;20031;-72
2021/12/04 08:10:36;;;;;;;129.02;63.45;;;4.40;99.90;;;;;;5053138;28;20159;-73
2021/12/04 08:13:03;;;;;;;110.90;53.13;;;4.30;99.90;;;;;;5052842;28;20463;-72
2021/12/04 08:15:30;;;;;;;111.85;52.00;;;4.40;99.90;;;;;;5053300;28;20025;-72
2021/12/04 08:17:56;;;;;;;139.63;60.65;;;4.40;99.90;;;;;;5053185;28;20087;-72
2021/12/04 08:20:25;;;;;;;105.05;45.95;;;4.60;99.90;;;;;;5052709;28;20020;-72
2021/12/04 08:22:51;;;;;;;108.88;52.08;;;4.40;99.90;;;;;;5052956;28;20036;-73
2021/12/04 08:25:18;;;;;;;103.45;47.05;;;4.40;99.90;;;;;;5052857;28;20025;-72
2021/12/04 08:27:46;;;;;;;92.00;43.13;;;4.60;99.90;;;;;;5052376;28;20021;-73
2021/12/04 08:30:15;;;;;;;88.82;44.47;;;4.70;99.90;;;;;;5052470;28;20032;-72
2021/12/04 08:32:41;;;;;;;72.72;37.88;;;4.70;99.90;;;;;;5051088;28;20045;-72
2021/12/04 08:35:11;;;;;;;67.40;32.58;;;4.60;99.90;;;;;;5052193;28;20041;-72
2021/12/04 08:37:37;;;;;;;63.30;29.48;;;4.70;99.90;;;;;;5052791;28;20017;-71
2021/12/04 08:40:10;;;;;;;90.80;43.17;;;4.80;99.90;;;;;;5053222;28;20021;-71
2021/12/04 08:42:37;;;;;;;77.05;36.05;;;4.80;99.90;;;;;;5056836;28;20025;-71
2021/12/04 08:45:03;;;;;;;98.15;45.35;;;4.80;99.90;;;;;;5056381;28;20029;-71
2021/12/04 08:47:30;;;;;;;93.18;41.85;;;4.90;99.90;;;;;;5056826;28;20032;-71
2021/12/04 08:49:55;;;;;;;101.13;48.50;;;4.90;99.90;;;;;;5057086;28;20029;-71
2021/12/04 08:52:21;;;;;;;123.30;50.42;;;5.10;99.90;;;;;;5056376;28;20098;-71
2021/12/04 08:54:47;;;;;;;127.32;49.75;;;5.30;99.90;;;;;;5056365;28;20040;-71
2021/12/04 08:57:13;;;;;;;157.05;65.47;;;5.10;99.90;;;;;;5056581;28;20056;-71
2021/12/04 08:59:39;;;;;;;178.05;73.72;;;5.20;99.90;;;;;;5056579;28;20045;-71
2021/12/04 09:02:06;;;;;;;94.65;38.53;;;5.30;99.90;;;;;;5056361;28;20019;-71
2021/12/04 09:04:35;;;;;;;67.95;30.60;;;5.40;99.90;;;;;;5056613;28;20096;-72
2021/12/04 09:07:02;;;;;;;66.45;29.83;;;5.60;99.90;;;;;;5056510;28;20363;-71
2021/12/04 09:09:28;;;;;;;120.28;50.35;;;5.70;99.90;;;;;;5056334;28;20474;-71
2021/12/04 09:12:00;;;;;;;67.80;32.05;;;5.40;99.90;;;;;;5056404;28;20021;-71
2021/12/04 09:14:29;;;;;;;95.68;42.17;;;5.70;99.90;;;;;;5056466;28;20036;-71
2021/12/04 09:16:57;;;;;;;46.08;21.48;;;5.90;99.90;;;;;;5055931;28;20414;-71
2021/12/04 09:19:23;;;;;;;47.72;23.00;;;5.80;99.90;;;;;;5056159;28;20060;-71
2021/12/04 09:21:50;;;;;;;64.68;31.27;;;6.10;99.90;;;;;;5056103;28;20048;-72
2021/12/04 09:24:24;;;;;;;73.50;35.03;;;6.60;99.90;;;;;;5055776;28;20444;-72
2021/12/04 09:30:05;;;;;;;61.65;30.42;;;6.60;99.90;;;;;;5046231;28;20021;-71
2021/12/04 10:02:17;;;;;;;54.50;25.48;;;9.30;99.90;;;;;;5054250;28;20017;-72
2021/12/04 10:13:48;;;;;;;52.13;24.40;;;9.10;99.90;;;;;;5054140;28;20085;-72
2021/12/04 10:16:57;;;;;;;47.88;21.85;;;9.20;99.90;;;;;;5053769;28;20036;-71
2021/12/04 10:23:04;;;;;;;49.00;24.92;;;9.90;99.90;;;;;;5054995;28;20017;-72
2021/12/04 10:33:21;;;;;;;49.40;25.15;;;10.80;99.90;;;;;;5054698;28;20031;-71
2021/12/04 10:35:48;;;;;;;58.38;28.73;;;11.10;99.90;;;;;;5054903;28;20051;-71
2021/12/04 10:38:21;;;;;;;38.75;17.75;;;11.50;99.90;;;;;;5054746;28;20020;-71
2021/12/04 10:40:49;;;;;;;36.25;17.58;;;11.50;99.90;;;;;;5054929;28;20041;-72
2021/12/04 10:43:20;;;;;;;55.70;25.73;;;11.10;99.90;;;;;;5054790;28;20021;-72
2021/12/04 10:45:51;;;;;;;32.65;16.65;;;11.50;97.80;;;;;;5054759;28;20486;-72
2021/12/04 10:48:21;;;;;;;35.60;17.75;;;11.40;99.40;;;;;;5054320;28;20059;-72
2021/12/04 10:51:36;;;;;;;42.08;16.40;;;11.30;99.90;;;;;;5054547;28;20024;-72
2021/12/04 10:53:48;;;;;;;51.92;25.65;;;11.40;99.90;;;;;;5051240;28;20068;-71
2021/12/04 11:26:39;;;;;;;46.30;24.85;;;9.80;99.90;;;;;;5036221;28;20456;-71
2021/12/04 11:37:47;;;;;;;47.08;25.25;;;9.40;99.90;;;;;;5053092;28;20027;-71
2021/12/04 11:43:22;;;;;;;59.15;31.98;;;9.10;99.90;;;;;;5054080;28;20452;-71
2021/12/04 11:48:42;;;;;;;46.13;24.13;;;9.10;99.90;;;;;;5041548;28;20112;-71
2021/12/04 11:51:16;;;;;;;180.18;72.97;;;8.50;99.90;;;;;;5034049;28;20025;-71
2021/12/04 11:53:43;;;;;;;70.68;37.95;;;8.40;99.90;;;;;;5037957;28;20363;-71
2021/12/04 11:56:35;;;;;;;68.13;33.50;;;8.30;99.90;;;;;;5047521;28;20028;-71
2021/12/04 11:59:00;;;;;;;62.38;28.92;;;8.20;99.90;;;;;;5033582;28;20116;-71
2021/12/04 12:01:31;;;;;;;64.35;33.42;;;8.00;99.90;;;;;;5039128;28;20167;-72
2021/12/04 12:04:01;;;;;;;66.22;32.42;;;7.90;99.90;;;;;;5045609;28;20033;-71
2021/12/04 12:06:41;;;;;;;78.63;35.63;;;7.80;99.90;;;;;;5053974;28;20033;-71
2021/12/04 12:09:14;;;;;;;58.95;30.98;;;7.70;99.90;;;;;;5053655;28;20209;-71
2021/12/04 12:11:51;;;;;;;160.70;70.35;;;7.60;99.90;;;;;;5052752;28;20445;-71
2021/12/04 12:14:33;;;;;;;126.57;58.55;;;7.70;99.90;;;;;;5052531;28;20025;-72
2021/12/04 12:16:59;;;;;;;340.10;153.40;;;7.70;99.90;;;;;;5053630;28;20017;-71
2021/12/04 12:19:36;;;;;;;254.63;111.65;;;7.70;99.90;;;;;;5053676;28;20028;-71
2021/12/04 12:22:26;;;;;;;180.32;78.75;;;7.60;99.90;;;;;;5053471;28;20032;-71
2021/12/04 12:39:13;;;;;;;102.27;46.33;;;7.70;99.90;;;;;;5030870;28;20055;-71
2021/12/04 12:41:42;;;;;;;108.37;48.13;;;7.70;99.90;;;;;;5030832;28;20287;-71
2021/12/04 12:44:18;;;;;;;69.72;35.42;;;7.90;99.90;;;;;;5031308;28;20087;-72
2021/12/04 12:46:51;;;;;;;71.18;37.72;;;7.80;99.90;;;;;;5030704;28;20025;-71
2021/12/04 12:49:23;;;;;;;66.70;34.03;;;7.80;99.90;;;;;;5031481;28;20479;-71
2021/12/04 12:52:03;;;;;;;130.23;71.30;;;7.80;99.90;;;;;;5031028;28;20045;-71
2021/12/04 12:54:44;;;;;;;115.20;56.58;;;7.80;99.90;;;;;;5030696;28;20073;-71
2021/12/04 12:57:11;;;;;;;327.33;142.68;;;7.70;99.90;;;;;;5030950;28;20025;-71
2021/12/04 13:11:35;;;;;;;160.30;67.97;;;7.70;99.90;;;;;;5030804;28;20073;-71
2021/12/04 13:14:13;;;;;;;201.75;93.78;;;7.70;99.90;;;;;;5037349;28;20436;-71
2021/12/04 13:16:43;;;;;;;45.85;24.17;;;7.60;99.90;;;;;;5053030;28;20024;-71
2021/12/04 13:19:12;;;;;;;63.13;31.83;;;7.60;99.90;;;;;;5052807;28;20115;-71
2021/12/04 13:21:41;;;;;;;65.75;31.25;;;7.70;99.90;;;;;;5052819;28;20032;-71
2021/12/04 13:24:11;;;;;;;101.95;49.92;;;7.70;99.90;;;;;;5052492;28;20024;-73
2021/12/04 13:26:42;;;;;;;116.57;53.85;;;7.60;99.90;;;;;;5054495;28;20029;-70
2021/12/04 13:29:09;;;;;;;86.30;41.22;;;7.60;99.90;;;;;;5055285;28;20048;-70
2021/12/04 13:31:39;;;;;;;133.55;61.55;;;7.60;99.90;;;;;;5056623;28;20021;-70
2021/12/04 13:34:11;;;;;;;107.20;55.58;;;7.60;99.90;;;;;;5055447;28;20021;-72
2021/12/04 13:36:37;;;;;;;77.70;37.53;;;7.50;99.90;;;;;;5056321;28;20032;-72
2021/12/04 13:39:11;;;;;;;74.65;37.58;;;7.50;99.90;;;;;;5056385;28;20028;-72
2021/12/04 13:41:40;;;;;;;96.70;45.58;;;7.50;99.90;;;;;;5055911;28;20162;-73
2021/12/04 13:44:08;;;;;;;76.45;38.80;;;7.40;99.90;;;;;;5056385;28;20044;-72
2021/12/04 13:46:44;;;;;;;76.38;38.28;;;7.40;99.90;;;;;;5055984;28;20478;-71
2021/12/04 13:49:12;;;;;;;76.25;37.38;;;7.40;99.90;;;;;;5056140;28;20140;-70
2021/12/04 13:51:39;;;;;;;84.32;39.88;;;7.40;99.90;;;;;;5056239;28;20447;-71
2021/12/04 13:54:06;;;;;;;83.40;42.35;;;7.40;99.90;;;;;;5055892;28;20400;-71
2021/12/04 13:56:32;;;;;;;80.90;39.95;;;7.30;99.90;;;;;;5055927;28;20027;-71
2021/12/04 13:59:01;;;;;;;102.30;49.00;;;7.30;99.90;;;;;;5056058;28;20578;-72
2021/12/04 14:01:30;;;;;;;129.43;60.17;;;7.20;99.90;;;;;;5056099;28;20028;-71
2021/12/04 14:03:58;;;;;;;83.40;41.65;;;7.20;99.90;;;;;;5055837;28;20032;-71
2021/12/04 14:06:24;;;;;;;120.80;50.92;;;7.10;99.90;;;;;;5055781;28;20056;-71
2021/12/04 14:09:06;;;;;;;100.47;46.85;;;7.10;99.90;;;;;;5055506;28;20410;-72
2021/12/04 14:11:37;;;;;;;94.43;46.72;;;7.00;99.90;;;;;;5055708;28;20056;-71
2021/12/04 14:14:15;;;;;;;111.15;52.30;;;7.00;99.90;;;;;;5055847;28;20101;-71
2021/12/04 14:16:43;;;;;;;136.55;57.45;;;7.00;99.90;;;;;;5055602;28;20526;-71
2021/12/04 14:19:16;;;;;;;116.10;46.80;;;7.00;99.90;;;;;;5055728;28;20340;-71
2021/12/04 14:21:50;;;;;;;100.03;43.47;;;6.90;99.90;;;;;;5055557;28;20029;-71
2021/12/04 14:25:01;;;;;;;114.93;52.50;;;6.90;99.90;;;;;;5055364;28;20070;-71
2021/12/04 14:27:34;;;;;;;151.93;65.10;;;6.90;99.90;;;;;;5033123;28;20117;-72
2021/12/04 14:30:06;;;;;;;177.05;71.15;;;6.80;99.90;;;;;;5033396;28;20035;-74
2021/12/04 14:32:34;;;;;;;150.32;63.30;;;6.70;99.90;;;;;;5033086;28;20106;-75
2021/12/04 14:35:03;;;;;;;161.00;75.75;;;6.60;99.90;;;;;;5033049;28;20116;-73
2021/12/04 14:37:37;;;;;;;164.80;75.45;;;6.60;99.90;;;;;;5031174;28;20069;-74
2021/12/04 14:40:06;;;;;;;148.50;74.10;;;6.50;99.90;;;;;;5031348;28;20034;-73
2021/12/04 14:42:33;;;;;;;178.23;82.18;;;6.40;99.90;;;;;;5031559;28;20029;-74
2021/12/04 14:45:03;;;;;;;150.43;68.75;;;6.30;99.90;;;;;;5031290;28;20032;-74
2021/12/04 14:47:35;;;;;;;168.43;75.18;;;6.30;99.90;;;;;;5031489;28;20133;-73
2021/12/04 14:50:02;;;;;;;161.00;75.28;;;6.20;99.90;;;;;;5028871;28;20048;-74
2021/12/04 14:52:34;;;;;;;168.85;78.47;;;6.20;99.90;;;;;;5031170;28;20030;-74
2021/12/04 14:55:16;;;;;;;200.90;90.10;;;6.10;99.90;;;;;;5025876;28;20131;-73
2021/12/04 14:57:43;;;;;;;233.27;104.10;;;6.00;99.90;;;;;;5032307;28;20108;-72
2021/12/04 15:00:14;;;;;;;241.00;111.30;;;5.90;99.90;;;;;;5032342;28;20068;-71
2021/12/04 15:02:40;;;;;;;241.83;111.17;;;5.80;99.90;;;;;;5033332;28;20067;-72
2021/12/04 15:05:07;;;;;;;262.75;117.32;;;5.80;99.90;;;;;;5034862;28;20018;-72
2021/12/04 15:07:34;;;;;;;274.75;123.05;;;5.70;99.90;;;;;;5035028;28;20025;-71
2021/12/04 15:10:16;;;;;;;273.60;117.07;;;5.70;99.90;;;;;;5034612;28;20534;-72
2021/12/04 15:12:42;;;;;;;287.80;118.55;;;5.70;99.90;;;;;;5034254;28;20026;-73
2021/12/04 15:15:09;;;;;;;260.80;121.63;;;5.60;99.90;;;;;;5034446;28;20036;-72
2021/12/04 15:17:36;;;;;;;274.08;125.07;;;5.50;99.90;;;;;;5034555;28;20060;-72
2021/12/04 15:20:10;;;;;;;257.73;121.43;;;5.40;99.90;;;;;;5034677;28;20029;-72
2021/12/04 15:22:43;;;;;;;258.02;119.22;;;5.40;99.90;;;;;;5034641;28;20028;-72
2021/12/04 15:25:11;;;;;;;291.08;130.02;;;5.30;99.90;;;;;;5034448;28;20045;-72
2021/12/04 15:27:37;;;;;;;274.52;127.93;;;5.30;99.90;;;;;;5034065;28;20036;-72
2021/12/04 15:30:09;;;;;;;285.10;131.20;;;5.20;99.90;;;;;;5034633;28;20053;-72
2021/12/04 15:32:38;;;;;;;305.23;147.77;;;5.20;99.90;;;;;;5034480;28;20022;-71
2021/12/04 15:38:04;;;;;;;328.08;155.65;;;5.10;99.90;;;;;;5034290;28;20025;-71
2021/12/04 15:44:00;;;;;;;354.40;169.30;;;5.00;99.90;;;;;;5031568;28;20029;-71
2021/12/04 15:46:48;;;;;;;329.13;159.32;;;5.00;99.90;;;;;;5031938;28;20050;-71